Time;durP1;ratioP1;P1;durP2;ratioP2;P2;SDS_P1;SDS_P2;PMS_P1;PMS_P2;Temp;Humidity;BMP_temperature;BMP_pressure;BME280_temperature;BME280_humidity;BME280_pressure;Samples;Min_cycle;Max_cycle;Signal;HPM_P1;HPM_P2
2023/12/15 00:01:16;;;;;;;17.30;16.40;;;;;;;-141.02;100.00;73083.88;5115801;28;20197;-77
2023/12/15 00:03:43;;;;;;;16.80;16.00;;;;;;;-141.02;100.00;72835.97;5115686;28;20310;-77
2023/12/15 00:06:10;;;;;;;17.97;17.07;;;;;;;-141.02;100.00;72835.97;5115400;28;20575;-77
2023/12/15 00:08:37;;;;;;;17.07;16.27;;;;;;;-141.02;100.00;72835.97;5115629;28;20296;-78
2023/12/15 00:11:05;;;;;;;17.60;16.70;;;;;;;-141.02;100.00;72835.97;5115281;28;20705;-76
2023/12/15 00:13:32;;;;;;;17.50;16.60;;;;;;;-141.02;100.00;72588.06;5115213;28;20220;-76
2023/12/15 00:16:02;;;;;;;16.57;15.77;;;;;;;-141.02;100.00;72588.06;5115276;28;20193;-77
2023/12/15 00:18:30;;;;;;;17.20;16.30;;;;;;;-141.02;100.00;72588.06;5115422;28;20723;-77
2023/12/15 00:20:57;;;;;;;17.10;16.30;;;;;;;-141.02;100.00;72835.97;5115080;28;20240;-76
2023/12/15 00:23:24;;;;;;;16.57;15.77;;;;;;;-141.02;100.00;72588.06;5114740;28;20569;-77
2023/12/15 00:25:51;;;;;;;16.90;16.10;;;;;;;-141.02;100.00;72835.97;5115301;28;20201;-76
2023/12/15 00:28:21;;;;;;;16.17;15.37;;;;;;;-141.02;100.00;72835.97;5114935;28;20288;-77
2023/12/15 00:30:48;;;;;;;16.10;15.30;;;;;;;-141.02;100.00;73083.88;5114935;28;20203;-76
2023/12/15 00:33:15;;;;;;;16.80;16.00;;;;;;;-141.02;100.00;73083.88;5115067;28;20225;-77
2023/12/15 00:35:46;;;;;;;16.27;15.47;;;;;;;-141.02;100.00;73083.88;5115114;28;20197;-77
2023/12/15 00:38:13;;;;;;;17.70;16.80;;;;;;;-141.02;100.00;73083.88;5114689;28;20192;-76
2023/12/15 00:40:39;;;;;;;17.60;16.70;;;;;;;-141.02;100.00;72835.97;5115093;28;20221;-76
2023/12/15 00:43:06;;;;;;;16.63;15.83;;;;;;;-141.02;100.00;73331.81;5114987;28;20189;-76
2023/12/15 00:45:33;;;;;;;17.03;16.13;;;;;;;-141.02;100.00;73331.81;5114589;28;20301;-77
2023/12/15 00:48:06;;;;;;;17.67;16.77;;;;;;;-141.02;100.00;73579.75;5114581;28;20757;-76
2023/12/15 00:50:33;;;;;;;17.10;16.27;;;;;;;-141.02;100.00;73579.75;5114745;28;20190;-76
2023/12/15 00:53:02;;;;;;;17.70;16.80;;;;;;;-141.02;100.00;73827.72;5114728;28;20304;-75
2023/12/15 00:55:32;;;;;;;17.53;16.63;;;;;;;-141.02;100.00;74075.72;5114130;28;20612;-76
2023/12/15 00:57:58;;;;;;;17.50;16.60;;;;;;;-141.02;100.00;74075.72;5114703;28;20189;-75
2023/12/15 01:00:26;;;;;;;16.97;16.17;;;;;;;-141.02;100.00;73579.75;5114391;28;20554;-75
2023/12/15 01:02:53;;;;;;;18.10;17.10;;;;;;;-141.02;100.00;73827.72;5114325;28;20201;-77
2023/12/15 01:05:20;;;;;;;17.63;16.73;;;;;;;-141.02;100.00;73579.75;5114255;28;20197;-76
2023/12/15 01:07:47;;;;;;;17.90;17.00;;;;;;;-141.02;100.00;73579.75;5114161;28;20872;-74
2023/12/15 01:10:15;;;;;;;18.00;17.10;;;;;;;-141.02;100.00;73331.81;5114456;28;20193;-76
2023/12/15 01:12:42;;;;;;;17.47;16.57;;;;;;;-141.02;100.00;73331.81;5114337;28;20225;-76
2023/12/15 01:15:10;;;;;;;17.30;16.40;;;;;;;-141.02;100.00;73331.81;5114264;28;20315;-76
2023/12/15 01:17:37;;;;;;;18.13;17.20;;;;;;;-141.02;100.00;73083.88;5114393;28;20280;-76
2023/12/15 01:20:05;;;;;;;17.80;16.90;;;;;;;-141.02;100.00;72835.97;5114250;28;20199;-76
2023/12/15 01:22:38;;;;;;;17.43;16.53;;;;;;;-141.02;100.00;72835.97;5114197;28;20283;-75
2023/12/15 01:25:05;;;;;;;18.20;17.20;;;;;;;-141.02;100.00;72340.16;5114082;28;20193;-76
2023/12/15 01:27:34;;;;;;;18.47;17.47;;;;;;;-141.02;100.00;72588.06;5114087;28;20197;-76
2023/12/15 01:30:01;;;;;;;17.80;16.90;;;;;;;-141.02;100.00;72835.97;5113920;28;20208;-76
2023/12/15 01:32:28;;;;;;;18.60;17.60;;;;;;;-141.02;100.00;72835.97;5114065;28;20296;-77
2023/12/15 01:34:55;;;;;;;19.40;18.40;;;;;;;-141.02;100.00;72340.16;5113472;28;20307;-76
2023/12/15 01:37:22;;;;;;;18.27;17.37;;;;;;;-141.02;100.00;72835.97;5113315;28;20219;-77
2023/12/15 01:39:49;;;;;;;18.73;17.73;;;;;;;-141.02;100.00;72835.97;5113599;28;20689;-80
2023/12/15 01:42:16;;;;;;;18.50;17.50;;;;;;;-141.02;100.00;72835.97;5113758;28;20283;-77
2023/12/15 01:44:44;;;;;;;17.33;16.43;;;;;;;-141.02;100.00;72835.97;5113821;28;20281;-77
2023/12/15 01:47:13;;;;;;;16.93;16.13;;;;;;;-141.02;100.00;72835.97;5113416;28;20288;-76
2023/12/15 01:49:40;;;;;;;17.90;17.00;;;;;;;-141.02;100.00;73083.88;5113718;28;20717;-80
2023/12/15 01:52:07;;;;;;;17.70;16.80;;;;;;;-141.02;100.00;73083.88;5113690;28;20272;-75
2023/12/15 01:54:34;;;;;;;17.60;16.70;;;;;;;-141.02;100.00;73083.88;5113383;28;20248;-77
2023/12/15 01:57:04;;;;;;;18.70;17.70;;;;;;;-141.02;100.00;73331.81;5113102;28;20251;-77
2023/12/15 01:59:42;;;;;;;17.80;16.90;;;;;;;-141.02;100.00;73083.88;5113165;28;20198;-76
2023/12/15 02:02:16;;;;;;;17.63;16.73;;;;;;;-141.02;100.00;72835.97;5113644;28;20191;-76
2023/12/15 02:04:43;;;;;;;17.77;16.87;;;;;;;-141.02;100.00;72835.97;5113377;28;20214;-76
2023/12/15 02:07:10;;;;;;;17.20;16.40;;;;;;;-141.02;100.00;73083.88;5113161;28;20586;-77
2023/12/15 02:09:46;;;;;;;17.73;16.83;;;;;;;-141.02;100.00;72835.97;5113357;28;20276;-76
2023/12/15 02:12:13;;;;;;;18.13;17.23;;;;;;;-141.02;100.00;73083.88;5113278;28;20192;-77
2023/12/15 02:14:43;;;;;;;17.10;16.30;;;;;;;-141.02;100.00;73827.72;5113093;28;20227;-77
2023/12/15 02:17:12;;;;;;;17.60;16.70;;;;;;;-141.02;100.00;74075.72;5113004;28;20656;-76
2023/12/15 02:19:40;;;;;;;16.77;15.97;;;;;;;-141.02;100.00;74075.72;5112909;28;20197;-75
2023/12/15 02:22:07;;;;;;;17.40;16.50;;;;;;;-141.02;100.00;74323.72;5112759;28;20667;-77
2023/12/15 02:24:36;;;;;;;16.73;15.93;;;;;;;-141.02;100.00;74323.72;5112905;28;20288;-77
2023/12/15 02:27:03;;;;;;;16.20;15.40;;;;;;;-141.02;100.00;74323.72;5113362;28;20189;-76
2023/12/15 02:29:31;;;;;;;17.17;16.30;;;;;;;-141.02;100.00;74323.72;5113155;28;20636;-75
2023/12/15 02:31:58;;;;;;;16.53;15.73;;;;;;;-141.02;100.00;74323.72;5113792;28;20201;-77
2023/12/15 02:34:27;;;;;;;15.97;15.27;;;;;;;-141.02;100.00;74819.81;5112603;28;20235;-75
2023/12/15 02:36:54;;;;;;;16.30;15.50;;;;;;;-141.02;100.00;74819.81;5112868;28;20220;-76
2023/12/15 02:39:20;;;;;;;16.23;15.43;;;;;;;-141.02;100.00;74571.75;5112532;28;20284;-77
2023/12/15 02:41:52;;;;;;;16.00;15.30;;;;;;;-141.02;100.00;74819.81;5112864;28;20232;-76
2023/12/15 02:44:18;;;;;;;16.30;15.50;;;;;;;-141.02;100.00;74819.81;5112811;28;20207;-75
2023/12/15 02:46:45;;;;;;;15.77;15.07;;;;;;;-141.02;100.00;74819.81;5112142;28;20288;-75
2023/12/15 02:49:12;;;;;;;15.70;15.00;;;;;;;-141.02;100.00;74819.81;5112388;28;20284;-76
2023/12/15 02:51:38;;;;;;;15.30;14.60;;;;;;;-141.02;100.00;74819.81;5112395;28;20197;-75
2023/12/15 02:54:05;;;;;;;16.50;15.70;;;;;;;-141.02;100.00;74571.75;5112612;28;20232;-74
2023/12/15 02:56:32;;;;;;;16.43;15.63;;;;;;;-141.02;100.00;74571.75;5112088;28;20673;-75
2023/12/15 02:59:03;;;;;;;17.17;16.37;;;;;;;-141.02;100.00;74571.75;5112591;28;20189;-75
2023/12/15 03:01:30;;;;;;;16.47;15.67;;;;;;;-141.02;100.00;74571.75;5112212;28;20204;-75
2023/12/15 03:03:57;;;;;;;16.03;15.33;;;;;;;-141.02;100.00;75067.88;5112341;28;20232;-75
2023/12/15 03:06:24;;;;;;;16.77;15.97;;;;;;;-141.02;100.00;75564.03;5112585;28;20193;-75
2023/12/15 03:08:51;;;;;;;17.13;16.33;;;;;;;-141.02;100.00;75315.94;5112209;28;20659;-75
2023/12/15 03:11:18;;;;;;;16.27;15.47;;;;;;;-141.02;100.00;75564.03;5112288;28;20208;-75
2023/12/15 03:13:45;;;;;;;17.57;16.77;;;;;;;-141.02;100.00;75812.16;5112100;28;20232;-75
2023/12/15 03:16:13;;;;;;;16.00;15.30;;;;;;;-141.02;100.00;75812.16;5112153;28;20695;-74
2023/12/15 03:18:40;;;;;;;14.40;13.80;;;;;;;-141.02;100.00;75564.03;5112329;28;20193;-74
2023/12/15 03:21:07;;;;;;;13.60;13.10;;;;;;;-141.02;100.00;75315.94;5112583;28;20194;-85
2023/12/15 03:23:34;;;;;;;13.27;12.77;;;;;;;-141.02;100.00;75067.88;5112204;28;20275;-74
2023/12/15 03:26:01;;;;;;;13.60;13.10;;;;;;;-141.02;100.00;75315.94;5112338;28;20189;-74
2023/12/15 03:28:34;;;;;;;13.37;12.87;;;;;;;-141.02;100.00;74819.81;5112452;28;20193;-74
2023/12/15 03:31:01;;;;;;;13.60;13.10;;;;;;;-141.02;100.00;74571.75;5111969;28;20193;-74
2023/12/15 03:33:35;;;;;;;16.13;15.53;;;;;;;-141.02;100.00;74571.75;5111995;28;20652;-73
2023/12/15 03:36:06;;;;;;;13.40;12.90;;;;;;;-141.02;100.00;74323.72;5111912;28;20707;-74
2023/12/15 03:38:35;;;;;;;13.70;13.20;;;;;;;-141.02;100.00;74075.72;5112298;28;20197;-73
2023/12/15 03:41:05;;;;;;;13.43;12.93;;;;;;;-141.02;100.00;73827.72;5112254;28;20203;-73
2023/12/15 03:43:32;;;;;;;12.87;12.47;;;;;;;-141.02;100.00;73579.75;5111979;28;20667;-74
2023/12/15 03:46:01;;;;;;;13.60;13.10;;;;;;;-141.02;100.00;73579.75;5111942;28;20772;-73
2023/12/15 03:48:28;;;;;;;13.20;12.80;;;;;;;-141.02;100.00;73331.81;5111868;28;20197;-73
2023/12/15 03:50:55;;;;;;;13.40;13.00;;;;;;;-141.02;100.00;73331.81;5111839;28;20196;-73
2023/12/15 03:53:22;;;;;;;12.57;12.17;;;;;;;-141.02;100.00;73579.75;5111797;28;20650;-73
2023/12/15 03:55:49;;;;;;;12.70;12.30;;;;;;;-141.02;100.00;73827.72;5111785;28;20320;-73
2023/12/15 03:58:16;;;;;;;12.30;11.90;;;;;;;-141.02;100.00;74075.72;5112441;28;20204;-73
2023/12/15 04:00:43;;;;;;;12.70;12.30;;;;;;;-141.02;100.00;74571.75;5115218;28;20193;-76
2023/12/15 04:03:10;;;;;;;12.60;12.20;;;;;;;-141.02;100.00;74819.81;5115490;28;20193;-73
2023/12/15 04:05:38;;;;;;;12.57;12.17;;;;;;;-141.02;100.00;75067.88;5115717;28;20197;-73
2023/12/15 04:08:05;;;;;;;12.60;12.20;;;;;;;-141.02;100.00;75067.88;5115406;28;20232;-76
2023/12/15 04:10:32;;;;;;;13.20;12.80;;;;;;;-141.02;100.00;75067.88;5115370;28;20288;-74
2023/12/15 04:12:59;;;;;;;12.20;11.80;;;;;;;-141.02;100.00;75315.94;5115229;28;20618;-74
2023/12/15 04:15:26;;;;;;;12.30;11.90;;;;;;;-141.02;100.00;75315.94;5115211;28;20231;-73
2023/12/15 04:17:53;;;;;;;12.00;11.60;;;;;;;-141.02;100.00;75564.03;5115168;28;20193;-73
2023/12/15 04:20:20;;;;;;;13.10;12.70;;;;;;;-141.02;100.00;75315.94;5115189;28;20190;-74
2023/12/15 04:22:48;;;;;;;11.90;11.50;;;;;;;-141.02;100.00;75564.03;5115074;28;20574;-73
2023/12/15 04:25:15;;;;;;;11.70;11.30;;;;;;;-141.02;100.00;75564.03;5115055;28;20728;-73
2023/12/15 04:27:42;;;;;;;12.40;12.00;;;;;;;-141.02;100.00;75564.03;5114993;28;20292;-73
2023/12/15 04:30:10;;;;;;;12.00;11.60;;;;;;;-141.02;100.00;75812.16;5114907;28;20193;-74
2023/12/15 04:32:37;;;;;;;11.30;11.00;;;;;;;-141.02;100.00;75812.16;5115219;28;20280;-75
2023/12/15 04:35:05;;;;;;;10.90;10.60;;;;;;;-141.02;100.00;75812.16;5114722;28;20225;-73
2023/12/15 04:37:32;;;;;;;12.10;11.70;;;;;;;-141.02;100.00;75564.03;5114785;28;20599;-73
2023/12/15 04:40:00;;;;;;;11.50;11.20;;;;;;;-141.02;100.00;75564.03;5114763;28;20574;-73
2023/12/15 04:42:28;;;;;;;10.97;10.67;;;;;;;-141.02;100.00;75315.94;5115035;28;20279;-73
2023/12/15 04:44:55;;;;;;;10.50;10.20;;;;;;;-141.02;100.00;75315.94;5114977;28;20204;-76
2023/12/15 04:47:21;;;;;;;11.40;11.10;;;;;;;-141.02;100.00;75315.94;5114883;28;20189;-73
2023/12/15 04:50:21;;;;;;;11.30;11.00;;;;;;;-141.02;100.00;75315.94;5114540;28;20620;-73
2023/12/15 04:52:48;;;;;;;10.27;9.97;;;;;;;-141.02;100.00;75315.94;5114499;28;20208;-72
2023/12/15 04:55:16;;;;;;;10.20;9.90;;;;;;;-141.02;100.00;75315.94;5114536;28;20228;-74
2023/12/15 04:57:43;;;;;;;10.73;10.43;;;;;;;-141.02;100.00;75564.03;5114998;28;20580;-73
2023/12/15 05:00:11;;;;;;;11.23;10.93;;;;;;;-141.02;100.00;75315.94;5114404;28;20208;-73
2023/12/15 05:02:38;;;;;;;10.13;9.83;;;;;;;-141.02;100.00;75067.88;5114285;28;20651;-72
2023/12/15 05:05:06;;;;;;;10.57;10.27;;;;;;;-141.02;100.00;75067.88;5114321;28;20195;-72
2023/12/15 05:07:33;;;;;;;10.20;9.90;;;;;;;-141.02;100.00;75067.88;5114443;28;20197;-72
2023/12/15 05:10:00;;;;;;;11.57;11.27;;;;;;;-141.02;100.00;75067.88;5114327;28;20371;-73
2023/12/15 05:12:29;;;;;;;13.17;12.77;;;;;;;-141.02;100.00;75067.88;5114200;28;20243;-75
2023/12/15 05:14:56;;;;;;;10.90;10.60;;;;;;;-141.02;100.00;75067.88;5113972;28;20315;-72
2023/12/15 05:17:22;;;;;;;11.57;11.27;;;;;;;-141.02;100.00;75067.88;5114056;28;20655;-74
2023/12/15 05:19:49;;;;;;;11.97;11.67;;;;;;;-141.02;100.00;74819.81;5113964;28;20197;-73
2023/12/15 05:22:16;;;;;;;10.47;10.17;;;;;;;-141.02;100.00;74819.81;5113942;28;20193;-72
2023/12/15 05:24:43;;;;;;;11.83;11.53;;;;;;;-141.02;100.00;74571.75;5113842;28;20203;-72
2023/12/15 05:27:10;;;;;;;11.93;11.60;;;;;;;-141.02;100.00;74571.75;5113863;28;20193;-72
2023/12/15 05:29:45;;;;;;;11.80;11.50;;;;;;;-141.02;100.00;74323.72;5114112;28;20193;-72
2023/12/15 05:32:12;;;;;;;10.70;10.40;;;;;;;-141.02;100.00;74075.72;5113728;28;20185;-72
2023/12/15 05:34:39;;;;;;;11.20;10.90;;;;;;;-141.02;100.00;74075.72;5114277;28;20215;-72
2023/12/15 05:37:06;;;;;;;11.37;11.07;;;;;;;-141.02;100.00;74075.72;5113598;28;20659;-74
2023/12/15 05:39:33;;;;;;;11.30;11.00;;;;;;;-141.02;100.00;74323.72;5113596;28;20670;-72
2023/12/15 05:42:00;;;;;;;10.13;9.83;;;;;;;-141.02;100.00;74571.75;5113551;28;20193;-73
2023/12/15 05:44:27;;;;;;;10.43;10.13;;;;;;;-141.02;100.00;74571.75;5113519;28;20667;-72
2023/12/15 05:46:55;;;;;;;10.30;10.00;;;;;;;-141.02;100.00;74819.81;5113761;28;20654;-71
2023/12/15 05:49:22;;;;;;;10.80;10.50;;;;;;;-141.02;100.00;75315.94;5113745;28;20203;-72
2023/12/15 05:51:50;;;;;;;9.00;8.80;;;;;;;-141.02;100.00;75812.16;5113409;28;20189;-73
2023/12/15 05:54:17;;;;;;;10.23;9.93;;;;;;;-141.02;100.00;76308.44;5113651;28;20199;-72
2023/12/15 05:56:44;;;;;;;10.60;10.30;;;;;;;-141.02;100.00;75812.16;5113003;28;20237;-72
2023/12/15 05:59:10;;;;;;;10.60;10.30;;;;;;;-141.02;100.00;75812.16;5113550;28;20189;-72
2023/12/15 06:01:37;;;;;;;9.27;9.03;;;;;;;-141.02;100.00;76060.28;5113414;28;20276;-71
2023/12/15 06:04:06;;;;;;;9.50;9.20;;;;;;;-141.02;100.00;76060.28;5113459;28;20199;-72
2023/12/15 06:06:33;;;;;;;10.47;10.17;;;;;;;-141.02;100.00;76308.44;5113325;28;20280;-72
2023/12/15 06:08:59;;;;;;;10.90;10.60;;;;;;;-141.02;100.00;76308.44;5113071;28;20276;-72
2023/12/15 06:11:27;;;;;;;9.70;9.40;;;;;;;-141.02;100.00;76308.44;5113039;28;20200;-72
2023/12/15 06:13:54;;;;;;;10.20;9.90;;;;;;;-141.02;100.00;76308.44;5113243;28;20197;-72
2023/12/15 06:16:21;;;;;;;10.30;10.00;;;;;;;-141.02;100.00;76556.59;5113219;28;20228;-71
2023/12/15 06:18:49;;;;;;;10.07;9.77;;;;;;;-141.02;100.00;76804.81;5113130;28;20197;-71
2023/12/15 06:21:25;;;;;;;10.23;9.93;;;;;;;-141.02;100.00;77053.00;5112896;28;20193;-72
2023/12/15 06:23:52;;;;;;;10.10;9.80;;;;;;;-141.02;100.00;77797.72;5112937;28;20283;-74
2023/12/15 06:26:20;;;;;;;10.23;9.93;;;;;;;-141.02;100.00;77797.72;5113171;28;20193;-72
2023/12/15 06:28:48;;;;;;;10.27;9.97;;;;;;;-141.02;100.00;78294.28;5112741;28;20577;-71
2023/12/15 06:31:15;;;;;;;9.80;9.50;;;;;;;-141.02;100.00;78294.28;5112634;28;20197;-72
2023/12/15 06:33:42;;;;;;;9.40;9.10;;;;;;;-141.02;100.00;78790.94;5112977;28;20281;-79
2023/12/15 06:36:10;;;;;;;8.90;8.70;;;;;;;-141.02;100.00;78790.94;5112835;28;20311;-74
2023/12/15 06:38:42;;;;;;;9.60;9.30;;;;;;;-141.02;100.00;79039.28;5112605;28;20232;-72
2023/12/15 06:41:10;;;;;;;9.87;9.57;;;;;;;-141.02;100.00;79039.28;5112904;28;20271;-72
2023/12/15 06:43:39;;;;;;;9.50;9.20;;;;;;;-141.02;100.00;78790.94;5112837;28;20196;-72
2023/12/15 06:46:07;;;;;;;9.73;9.43;;;;;;;-141.02;100.00;78542.63;5113163;28;20203;-71
2023/12/15 06:48:34;;;;;;;9.67;9.37;;;;;;;-141.02;100.00;78542.63;5112816;28;20204;-72
2023/12/15 06:51:01;;;;;;;9.80;9.50;;;;;;;-141.02;100.00;78046.00;5112763;28;20196;-74
2023/12/15 06:53:28;;;;;;;9.20;9.00;;;;;;;-141.02;100.00;78046.00;5112714;28;20196;-73
2023/12/15 06:55:56;;;;;;;9.43;9.13;;;;;;;-141.02;100.00;78046.00;5112184;28;20247;-74
2023/12/15 06:58:23;;;;;;;9.70;9.40;;;;;;;-141.02;100.00;78294.28;5112661;28;20269;-73
2023/12/15 07:00:50;;;;;;;8.63;8.43;;;;;;;-141.02;100.00;78542.63;5113142;28;20193;-72
2023/12/15 07:03:17;;;;;;;8.60;8.40;;;;;;;-141.02;100.00;78542.63;5112353;28;20652;-72
2023/12/15 07:05:44;;;;;;;8.20;8.00;;;;;;;-141.02;100.00;78542.63;5112307;28;20770;-72
2023/12/15 07:08:11;;;;;;;8.00;7.80;;;;;;;-141.02;100.00;78294.28;5112603;28;20229;-72
2023/12/15 07:10:38;;;;;;;8.60;8.40;;;;;;;-141.02;100.00;78542.63;5112237;28;20678;-74
2023/12/15 07:13:06;;;;;;;8.93;8.73;;;;;;;-141.02;100.00;78046.00;5112490;28;20220;-78
2023/12/15 07:15:33;;;;;;;8.80;8.60;;;;;;;-141.02;100.00;78046.00;5112147;28;20600;-72
2023/12/15 07:18:00;;;;;;;8.90;8.70;;;;;;;-141.02;100.00;77797.72;5112463;28;20193;-72
2023/12/15 07:20:27;;;;;;;8.60;8.40;;;;;;;-141.02;100.00;77549.47;5112522;28;20193;-72
2023/12/15 07:22:54;;;;;;;9.00;8.80;;;;;;;-141.02;100.00;77797.72;5112420;28;20276;-72
2023/12/15 07:25:24;;;;;;;8.63;8.43;;;;;;;-141.02;100.00;77797.72;5112172;28;20283;-72
2023/12/15 07:27:51;;;;;;;8.70;8.50;;;;;;;-141.02;100.00;77797.72;5112354;28;20567;-73
2023/12/15 07:30:19;;;;;;;8.63;8.43;;;;;;;-141.02;100.00;78046.00;5112105;28;20198;-72
2023/12/15 07:32:46;;;;;;;8.20;8.00;;;;;;;-141.02;100.00;78294.28;5112445;28;20343;-73
2023/12/15 07:35:13;;;;;;;7.90;7.70;;;;;;;-141.02;100.00;78542.63;5115122;28;20203;-73
2023/12/15 07:37:40;;;;;;;7.67;7.47;;;;;;;-141.02;100.00;78542.63;5116376;28;20224;-72
2023/12/15 07:40:08;;;;;;;8.20;8.00;;;;;;;-141.02;100.00;78790.94;5115963;28;20193;-72
2023/12/15 07:42:35;;;;;;;8.00;7.80;;;;;;;-141.02;100.00;79287.66;5115983;28;20197;-72
2023/12/15 07:45:02;;;;;;;9.10;8.90;;;;;;;-141.02;100.00;79287.66;5115828;28;20198;-73
2023/12/15 07:47:30;;;;;;;8.37;8.17;;;;;;;-141.02;100.00;79039.28;5116481;28;20266;-72
2023/12/15 07:49:58;;;;;;;8.40;8.20;;;;;;;-141.02;100.00;79039.28;5115771;28;20193;-73
2023/12/15 07:52:26;;;;;;;8.20;8.00;;;;;;;-141.02;100.00;78790.94;5115946;28;20193;-73
2023/12/15 07:54:53;;;;;;;8.10;7.90;;;;;;;-141.02;100.00;78294.28;5115706;28;20620;-73
2023/12/15 07:57:20;;;;;;;8.20;8.00;;;;;;;-141.02;100.00;78294.28;5115418;28;20717;-73
2023/12/15 07:59:47;;;;;;;9.73;9.43;;;;;;;-141.02;100.00;78046.00;5115624;28;20200;-77
2023/12/15 08:02:16;;;;;;;8.40;8.20;;;;;;;-141.02;100.00;78294.28;5115569;28;20659;-72
2023/12/15 08:04:45;;;;;;;8.40;8.20;;;;;;;-141.02;100.00;78294.28;5115442;28;20570;-73
2023/12/15 08:07:14;;;;;;;8.33;8.13;;;;;;;-141.02;100.00;78542.63;5115764;28;20197;-72
2023/12/15 08:09:41;;;;;;;8.30;8.10;;;;;;;-141.02;100.00;78790.94;5115715;28;20276;-73
2023/12/15 08:12:09;;;;;;;7.73;7.53;;;;;;;-141.02;100.00;79039.28;5115682;28;20276;-73
2023/12/15 08:14:36;;;;;;;7.57;7.37;;;;;;;-141.02;100.00;79536.03;5115212;28;20560;-74
2023/12/15 08:17:03;;;;;;;7.60;7.40;;;;;;;-141.02;100.00;79784.44;5115177;28;20779;-76
2023/12/15 08:19:31;;;;;;;7.40;7.20;;;;;;;-141.02;100.00;79287.66;5115463;28;20200;-74
2023/12/15 08:22:00;;;;;;;7.40;7.20;;;;;;;-141.02;100.00;78294.28;5115475;28;20200;-73
2023/12/15 08:24:27;;;;;;;7.43;7.23;;;;;;;-141.02;100.00;78542.63;5115476;28;20193;-73
2023/12/15 08:26:54;;;;;;;7.40;7.20;;;;;;;-141.02;100.00;78046.00;5115022;28;20232;-73
2023/12/15 08:29:21;;;;;;;7.20;7.00;;;;;;;-141.02;100.00;77797.72;5115536;28;20189;-73
2023/12/15 08:31:49;;;;;;;7.20;7.00;;;;;;;-141.02;100.00;77797.72;5115066;28;20197;-73
2023/12/15 08:34:17;;;;;;;6.70;6.50;;;;;;;-141.02;100.00;77301.22;5115218;28;20196;-72
2023/12/15 08:36:44;;;;;;;7.00;6.80;;;;;;;-141.02;100.00;77301.22;5114835;28;20263;-75
2023/12/15 08:39:13;;;;;;;7.17;6.97;;;;;;;-141.02;100.00;76308.44;5114971;28;20284;-73
2023/12/15 08:41:40;;;;;;;6.73;6.53;;;;;;;-141.02;100.00;76060.28;5115182;28;20628;-75
2023/12/15 08:44:07;;;;;;;6.60;6.40;;;;;;;-141.02;100.00;76060.28;5115248;28;20193;-73
2023/12/15 08:46:35;;;;;;;7.20;7.00;;;;;;;-141.02;100.00;76060.28;5114747;28;20258;-73
2023/12/15 08:49:02;;;;;;;6.70;6.50;;;;;;;-141.02;100.00;76308.44;5115078;28;20193;-73
2023/12/15 08:51:29;;;;;;;6.60;6.40;;;;;;;-141.02;100.00;76308.44;5114868;27;20204;-73
2023/12/15 08:53:56;;;;;;;6.60;6.40;;;;;;;-141.02;100.00;75564.03;5115408;28;20197;-73
2023/12/15 08:56:24;;;;;;;6.30;6.20;;;;;;;-141.02;100.00;75315.94;5115186;28;20231;-73
2023/12/15 08:58:51;;;;;;;6.00;5.90;;;;;;;-141.02;100.00;75315.94;5115146;28;20276;-73
2023/12/15 09:01:18;;;;;;;6.10;6.00;;;;;;;-141.02;100.00;75315.94;5114649;28;20678;-73
2023/12/15 09:03:45;;;;;;;6.10;6.00;;;;;;;-141.02;100.00;75564.03;5114475;28;20677;-73
2023/12/15 09:06:12;;;;;;;6.20;6.10;;;;;;;-141.02;100.00;76060.28;5114827;28;20232;-73
2023/12/15 09:08:40;;;;;;;6.00;5.90;;;;;;;-141.02;100.00;76556.59;5114689;28;20189;-73
2023/12/15 09:11:07;;;;;;;6.10;6.00;;;;;;;-141.02;100.00;76804.81;5114338;28;20190;-77
2023/12/15 09:13:35;;;;;;;5.90;5.80;;;;;;;-141.02;100.00;76804.81;5114205;28;20232;-74
2023/12/15 09:16:02;;;;;;;5.30;5.20;;;;;;;-141.02;100.00;76804.81;5114446;28;20710;-73
2023/12/15 09:18:29;;;;;;;5.80;5.70;;;;;;;-141.02;100.00;76060.28;5114098;28;20656;-74
2023/12/15 09:20:57;;;;;;;5.73;5.63;;;;;;;-141.02;100.00;75812.16;5114412;28;20193;-74
2023/12/15 09:23:24;;;;;;;6.20;6.10;;;;;;;-141.02;100.00;75564.03;5114139;28;20193;-74
2023/12/15 09:25:51;;;;;;;7.00;6.80;;;;;;;-141.02;100.00;74075.72;5113917;28;20284;-74
2023/12/15 09:28:18;;;;;;;7.40;7.20;;;;;;;-141.02;100.00;72835.97;5114242;28;20659;-74
2023/12/15 09:30:47;;;;;;;7.90;7.70;;;;;;;-141.02;100.00;71596.63;5114624;28;20201;-75
2023/12/15 09:33:14;;;;;;;8.40;8.20;;;;;;;-141.02;100.00;70605.50;5117232;28;20193;-75
2023/12/15 09:35:41;;;;;;;9.20;8.90;;;;;;;-141.02;100.00;68624.09;5114424;28;20285;-75
2023/12/15 09:38:08;;;;;;;9.20;8.90;;;;;;;-141.02;100.00;68871.72;5114358;28;20320;-75
2023/12/15 09:40:36;;;;;;;9.07;8.77;;;;;;;-141.02;100.00;69119.34;5114239;28;20279;-75
2023/12/15 09:43:03;;;;;;;8.90;8.60;;;;;;;-141.02;100.00;69119.34;5114040;28;20280;-75
2023/12/15 09:45:30;;;;;;;9.07;8.77;;;;;;;-141.02;100.00;68624.09;5113873;28;20193;-75
2023/12/15 09:48:03;;;;;;;9.80;9.50;;;;;;;-141.02;100.00;67633.81;5113607;28;20201;-77
2023/12/15 09:50:33;;;;;;;10.03;9.73;;;;;;;-141.02;100.00;66396.38;5113552;28;20609;-75
2023/12/15 09:53:03;;;;;;;9.70;9.40;;;;;;;-141.02;100.00;65654.13;5113561;28;20620;-76
2023/12/15 09:55:31;;;;;;;10.40;10.10;;;;;;;-141.02;100.00;65159.41;5113487;28;20275;-76
2023/12/15 09:58:00;;;;;;;10.20;9.90;;;;;;;-141.02;100.00;64912.06;5112438;28;20304;-75
2023/12/15 10:00:27;;;;;;;10.03;9.73;;;;;;;-141.02;100.00;65159.41;5113232;28;20284;-76
2023/12/15 10:02:54;;;;;;;9.83;9.53;;;;;;;-141.02;100.00;65901.53;5113350;28;20199;-75
2023/12/15 10:05:24;;;;;;;9.80;9.50;;;;;;;-141.02;100.00;66643.84;5113619;27;20276;-77
2023/12/15 10:07:52;;;;;;;9.60;9.30;;;;;;;-141.02;100.00;67138.78;5113529;28;20560;-75
2023/12/15 10:10:19;;;;;;;21.87;20.60;;;;;;;-141.02;100.00;67881.38;5113588;28;20193;-75
2023/12/15 10:12:46;;;;;;;11.33;10.93;;;;;;;-141.02;100.00;67881.38;5113033;28;20197;-75
2023/12/15 10:15:13;;;;;;;9.50;9.20;;;;;;;-141.02;100.00;67633.81;5113170;28;20196;-74
2023/12/15 10:17:41;;;;;;;10.03;9.73;;;;;;;-141.02;100.00;67138.78;5113241;28;20224;-75
2023/12/15 10:20:09;;;;;;;9.40;9.10;;;;;;;-141.02;100.00;66891.31;5113368;28;20292;-76
2023/12/15 10:22:39;;;;;;;9.30;9.00;;;;;;;-141.02;100.00;68128.91;5112991;28;20655;-74
2023/12/15 10:25:16;;;;;;;9.90;9.60;;;;;;;-141.02;100.00;68871.72;5112859;28;20691;-74
2023/12/15 10:27:44;;;;;;;9.93;9.63;;;;;;;-141.02;100.00;68376.50;5112895;28;20189;-75
2023/12/15 10:30:12;;;;;;;10.00;9.70;;;;;;;-141.02;100.00;68128.91;5113140;28;20336;-79
2023/12/15 10:32:39;;;;;;;10.20;9.90;;;;;;;-141.02;100.00;68624.09;5113041;28;20272;-75
2023/12/15 10:35:07;;;;;;;10.53;10.23;;;;;;;-141.02;100.00;68871.72;5113006;28;20321;-75
2023/12/15 10:37:35;;;;;;;11.40;11.10;;;;;;;-141.02;100.00;69366.97;5113434;28;20316;-76
2023/12/15 10:40:05;;;;;;;11.10;10.80;;;;;;;-141.02;100.00;69614.66;5112716;28;20231;-76
2023/12/15 10:42:33;;;;;;;10.90;10.60;;;;;;;-141.02;100.00;70110.03;5112571;28;20185;-76
2023/12/15 10:45:02;;;;;;;11.97;11.57;;;;;;;-141.02;100.00;68624.09;5112892;28;20605;-77
2023/12/15 10:47:30;;;;;;;12.20;11.80;;;;;;;-141.02;100.00;67386.28;5112457;28;20659;-76
2023/12/15 10:49:59;;;;;;;11.73;11.33;;;;;;;-141.02;100.00;66891.31;5112728;28;20197;-75
2023/12/15 10:52:26;;;;;;;11.70;11.30;;;;;;;-141.02;100.00;67138.78;5112658;28;20292;-74
2023/12/15 10:54:55;;;;;;;11.20;10.90;;;;;;;-141.02;100.00;67633.81;5112704;28;20189;-75
2023/12/15 10:57:23;;;;;;;11.40;11.10;;;;;;;-141.02;100.00;68871.72;5112138;28;20688;-73
2023/12/15 10:59:50;;;;;;;11.20;10.90;;;;;;;-141.02;100.00;69614.66;5112391;28;20232;-74
2023/12/15 11:02:21;;;;;;;11.93;11.53;;;;;;;-141.02;100.00;69366.97;5112624;28;20662;-73